Kuantan Airport
WMKD : now visible

Airfield :











YOU CAN JOIN US ON...

 
LOGIN :

Register | Disclaimer

   EN    FR    IT 

 









Legend :    VFR   Marginal VFR   IFR   Intensive IFR   Very Intensive IFR
Visi :
Ceiling :
>= 8 km
>= 3000ft
5 to 8 km
1000 to 3000 ft
1500m to 5 km
500 to 1000 ft
800 to 1500m
200 to 500 ft
< 800m
< 200 ft
Symbols :   Thunderstorms  Fog  Heavy snow  Heavy precipitations  Wind > 20 kt






- Airport Elevation : 58 ft
- IATA code : KUA


WMKD - Kuantan

CURRENT METAR :
  • 020500Z 34008KT 300V030 7000 FEW017CB SCT020 29/25 Q1011 NOSIG

EXPIRED METARs :
  • 012100Z VRB02KT 9999 FEW025 25/23 Q1010 NOSIG
  • 020400Z 02004KT 320V080 9999 SCT020 30/25 Q1012 NOSIG
  • 020300Z 35004KT 320V060 9999 SCT020 29/25 Q1012 NOSIG
  • 020200Z 34008KT 300V040 9999 FEW019 29/24 Q1012 NOSIG
  • 020100Z 34008KT 320V020 9999 FEW019 27/24 Q1011 NOSIG

TAF N/A
WMFC FIR / Asia



MET'MAP, your aeronautical weather chart ! - Copyright ORBIFLY December 2007 - Disclaimer

ORBIFLY MET'MAP TEAM :

Programming & Development : Alexandra Zaïnal
Original concept : Baudouin d'Aumeries
Technical & hardware support : Manuel Goepfert
Assistance : Marc-Olivier Méhu




SOURCES & CREDITS :

   NOAA       Earth
Advisory